Log in Register

Login to your account

Username *
Password *
Remember Me

Create an account

Fields marked with an asterisk (*) are required.
Name *
Username *
Password *
Verify password *
Email *
Verify email *

METAR/TAF de Chambéry

[source: ADDS]
METAR
LFLB 190330Z AUTO VRB02KT 9999 SCT054 OVC072 02/01 Q1029 =
TAF LFLB 181700Z 1818/1918 VRB02KT CAVOK PROB40 TEMPO 1903/1907 -SHRA SCT050TCU TEMPO 1907/1913 18010KT 4000 -SHRA BKN014 FEW060TCU TEMPO 1913/1916 FEW045TCU
TAF
TAF LFLB 181700Z 1818/1918 VRB02KT CAVOK PROB40 TEMPO 1903/1907 -SHRA SCT050TCU TEMPO 1907/1913 18010KT 4000 -SHRA BKN014 FEW060TCU TEMPO 1913/1916 FEW045TCU =
SR / SS: 06:32 / 17:07 UTC (Lever/Coucher du soleil le 2020-02-19)

 

Webcam de l'Aéroclub - Parking Lima et SW (réactualisation : 5min)

Cliquer ici pour une animation sur les 3 dernières heures / Cliquer sur l'image pour l'agrandir dans une nouvelle fenêtre

 

Webcam de l'Aéroclub - Manche à air et WA (réactualisation : 5min)

Cliquer ici pour une animation sur les 3 dernières heures / Cliquer sur l'image pour l'agrandir dans une nouvelle fenêtre

 

JSN Boot template designed by JoomlaShine.com